createdAt,value
2023-04-30T00:00:47.056Z,16.32
2023-04-30T00:03:17.533Z,16.40
2023-04-30T00:05:46.301Z,16.49
2023-04-30T00:08:14.935Z,16.41
2023-04-30T00:10:43.800Z,16.48
2023-04-30T00:13:14.079Z,16.43
2023-04-30T00:15:42.813Z,16.22
2023-04-30T00:18:11.947Z,16.11
2023-04-30T00:20:42.107Z,16.21
2023-04-30T00:23:11.029Z,15.90
2023-04-30T00:25:39.720Z,15.71
2023-04-30T00:28:08.407Z,15.82
2023-04-30T00:30:37.360Z,15.59
2023-04-30T00:33:06.100Z,15.44
2023-04-30T00:35:34.726Z,15.51
2023-04-30T00:38:05.127Z,15.61
2023-04-30T00:40:35.577Z,15.61
2023-04-30T00:43:04.800Z,15.61
2023-04-30T00:45:33.503Z,15.33
2023-04-30T00:48:02.434Z,15.50
2023-04-30T00:50:31.369Z,15.57
2023-04-30T00:53:00.214Z,15.36
2023-04-30T00:55:30.233Z,15.12
2023-04-30T00:57:59.750Z,15.41
2023-04-30T01:00:28.824Z,15.32
2023-04-30T01:02:57.658Z,15.25
2023-04-30T01:05:26.774Z,15.04
2023-04-30T01:07:56.404Z,15.21
2023-04-30T01:10:31.663Z,15.18
2023-04-30T01:13:06.595Z,15.08
2023-04-30T01:15:46.089Z,15.25
2023-04-30T01:18:17.828Z,15.24
2023-04-30T01:20:52.030Z,15.15
2023-04-30T01:23:29.713Z,15.28
2023-04-30T01:26:13.211Z,15.30
2023-04-30T01:28:45.091Z,15.06
2023-04-30T01:31:18.222Z,15.16
2023-04-30T01:33:47.739Z,15.19
2023-04-30T01:36:42.974Z,14.92
2023-04-30T01:39:22.268Z,14.98
2023-04-30T01:41:58.818Z,15.00
2023-04-30T01:44:42.505Z,15.01
2023-04-30T01:47:17.129Z,14.87
2023-04-30T01:49:59.279Z,14.94
2023-04-30T01:52:33.904Z,14.66
2023-04-30T01:55:08.490Z,14.75
2023-04-30T01:57:42.430Z,14.81
2023-04-30T02:00:17.457Z,14.68
2023-04-30T02:02:46.466Z,14.48
2023-04-30T02:05:15.152Z,14.60
2023-04-30T02:07:45.059Z,14.53
2023-04-30T02:10:14.391Z,14.29
2023-04-30T02:12:43.273Z,14.30
2023-04-30T02:15:13.665Z,14.36
2023-04-30T02:17:42.864Z,14.19
2023-04-30T02:20:12.276Z,13.99
2023-04-30T02:22:40.937Z,14.35
2023-04-30T02:25:12.449Z,14.43
2023-04-30T02:27:41.451Z,14.21
2023-04-30T02:30:13.150Z,14.36
2023-04-30T02:32:41.917Z,14.27
2023-04-30T02:35:11.427Z,13.98
2023-04-30T02:37:40.067Z,14.07
2023-04-30T02:40:09.879Z,14.15
2023-04-30T02:42:38.978Z,13.93
2023-04-30T02:45:08.596Z,14.01
2023-04-30T02:47:38.652Z,13.99
2023-04-30T02:50:10.584Z,14.14
2023-04-30T02:52:39.401Z,14.13
2023-04-30T02:55:09.418Z,13.71
2023-04-30T02:57:38.033Z,13.63
2023-04-30T03:00:08.658Z,13.64
2023-04-30T03:02:39.628Z,13.58
2023-04-30T03:05:09.006Z,13.45
2023-04-30T03:07:38.139Z,13.49
2023-04-30T03:10:08.191Z,13.44
2023-04-30T03:12:36.898Z,13.57
2023-04-30T03:15:07.154Z,13.60
2023-04-30T03:17:35.803Z,13.26
2023-04-30T03:20:07.317Z,13.18
2023-04-30T03:22:36.306Z,12.97
2023-04-30T03:25:05.363Z,13.07
2023-04-30T03:27:34.008Z,12.84
2023-04-30T03:30:02.934Z,12.78
2023-04-30T03:32:32.420Z,12.66
2023-04-30T03:35:01.259Z,12.66
2023-04-30T03:37:32.108Z,12.44
2023-04-30T03:40:00.954Z,12.67
2023-04-30T03:42:29.853Z,12.55
2023-04-30T03:44:58.577Z,12.62
2023-04-30T03:47:27.212Z,12.74
2023-04-30T03:49:56.419Z,12.77
2023-04-30T03:52:26.603Z,12.71
2023-04-30T03:54:56.882Z,12.68
2023-04-30T03:57:25.882Z,12.55
2023-04-30T03:59:54.837Z,12.56
2023-04-30T04:02:23.836Z,12.54
2023-04-30T04:04:53.246Z,12.55
2023-04-30T04:07:21.954Z,12.78
2023-04-30T04:09:50.766Z,12.85
2023-04-30T04:12:21.144Z,12.95
2023-04-30T04:14:49.810Z,12.82
2023-04-30T04:17:19.980Z,12.73
2023-04-30T04:19:49.222Z,13.01
2023-04-30T04:22:17.974Z,12.98
2023-04-30T04:24:47.913Z,13.03
2023-04-30T04:27:17.038Z,13.01
2023-04-30T04:29:47.287Z,13.05
2023-04-30T04:32:16.250Z,13.35
2023-04-30T04:34:45.898Z,13.21
2023-04-30T04:37:15.627Z,13.11
2023-04-30T04:39:45.116Z,13.04
2023-04-30T04:42:14.905Z,12.94
2023-04-30T04:44:43.948Z,12.98
2023-04-30T04:47:14.183Z,12.82
2023-04-30T04:49:43.044Z,12.52
2023-04-30T04:52:12.095Z,12.82
2023-04-30T04:54:41.118Z,12.57
2023-04-30T04:57:10.168Z,12.57
2023-04-30T04:59:38.865Z,12.77
2023-04-30T05:02:07.568Z,12.71
2023-04-30T05:04:38.014Z,13.00
2023-04-30T05:07:08.109Z,13.58
2023-04-30T05:09:37.213Z,14.01
2023-04-30T05:12:06.578Z,14.35
2023-04-30T05:14:35.758Z,14.99
2023-04-30T05:17:04.805Z,15.71
2023-04-30T05:19:33.652Z,15.54
2023-04-30T05:22:04.301Z,15.54
2023-04-30T05:24:33.496Z,15.47
2023-04-30T05:27:03.019Z,15.31
2023-04-30T05:29:31.776Z,15.18
2023-04-30T05:32:00.820Z,15.08
2023-04-30T05:34:29.657Z,14.94
2023-04-30T05:36:58.320Z,15.22
2023-04-30T05:39:28.680Z,15.12
2023-04-30T05:41:57.408Z,15.23
2023-04-30T05:44:26.058Z,15.41
2023-04-30T05:46:57.636Z,15.33
2023-04-30T05:49:26.470Z,15.16
2023-04-30T05:51:55.453Z,15.64
2023-04-30T05:54:24.192Z,15.67
2023-04-30T05:56:54.179Z,15.48
2023-04-30T05:59:23.121Z,15.05
2023-04-30T06:01:51.923Z,14.85
2023-04-30T06:04:21.058Z,14.56
2023-04-30T06:06:49.729Z,14.56
2023-04-30T06:09:18.468Z,14.31
2023-04-30T06:11:50.400Z,14.27
2023-04-30T06:14:22.813Z,14.30
2023-04-30T06:16:51.948Z,14.25
2023-04-30T06:19:20.942Z,14.29
2023-04-30T06:21:49.653Z,14.46
2023-04-30T06:24:18.611Z,14.47
2023-04-30T06:26:47.327Z,14.29
2023-04-30T06:29:15.993Z,14.36
2023-04-30T06:31:46.523Z,14.35
2023-04-30T06:34:15.289Z,14.39
2023-04-30T06:36:43.975Z,14.67
2023-04-30T06:39:15.412Z,14.59
2023-04-30T06:41:44.134Z,14.70
2023-04-30T06:44:13.077Z,14.65
2023-04-30T06:46:42.038Z,14.72
2023-04-30T06:49:12.214Z,14.74
2023-04-30T06:51:42.541Z,14.67
2023-04-30T06:54:11.242Z,14.79
2023-04-30T06:56:39.856Z,14.71
2023-04-30T06:59:08.766Z,14.64
2023-04-30T07:04:44.853Z,14.85
2023-04-30T07:07:13.560Z,14.98
2023-04-30T07:09:42.420Z,15.01
2023-04-30T07:12:13.694Z,14.98
2023-04-30T07:14:42.506Z,15.14
2023-04-30T07:17:11.546Z,15.22
2023-04-30T07:19:40.165Z,15.18
2023-04-30T07:22:10.189Z,15.31
2023-04-30T07:24:39.157Z,15.20
2023-04-30T07:27:07.797Z,15.06
2023-04-30T07:29:37.349Z,15.19
2023-04-30T07:32:06.846Z,15.48
2023-04-30T07:34:35.510Z,15.51
2023-04-30T07:37:04.282Z,15.66
2023-04-30T07:39:34.545Z,15.82
2023-04-30T07:42:04.106Z,15.86
2023-04-30T07:44:33.113Z,16.42
2023-04-30T07:47:01.789Z,16.32
2023-04-30T07:49:30.525Z,16.14
2023-04-30T07:52:00.987Z,16.49
2023-04-30T07:54:29.677Z,16.57
2023-04-30T07:57:00.072Z,16.68
2023-04-30T07:59:29.076Z,16.47
2023-04-30T08:01:57.751Z,16.29
2023-04-30T08:04:26.960Z,16.26
2023-04-30T08:06:55.612Z,16.46
2023-04-30T08:09:24.284Z,16.55
2023-04-30T08:11:53.240Z,16.58
2023-04-30T08:14:23.648Z,16.48
2023-04-30T08:16:52.493Z,16.75
2023-04-30T08:19:21.432Z,16.76
2023-04-30T08:21:50.116Z,17.03
2023-04-30T08:24:18.756Z,16.86
2023-04-30T08:26:47.863Z,16.80
2023-04-30T08:29:16.531Z,17.08
2023-04-30T08:31:46.678Z,17.25
2023-04-30T08:34:15.561Z,17.37
2023-04-30T08:36:44.310Z,17.45
2023-04-30T08:39:13.069Z,17.55
2023-04-30T08:41:43.378Z,17.77
2023-04-30T08:44:12.415Z,18.13
2023-04-30T08:46:42.313Z,18.07
2023-04-30T08:49:13.018Z,17.97
2023-04-30T08:51:42.115Z,18.15
2023-04-30T08:54:12.085Z,18.25
2023-04-30T08:56:41.064Z,18.28
2023-04-30T08:59:09.750Z,18.33
2023-04-30T09:01:38.757Z,18.36
2023-04-30T09:04:08.123Z,18.58
2023-04-30T09:06:38.393Z,18.79
2023-04-30T09:09:12.890Z,18.92
2023-04-30T09:11:42.003Z,19.06
2023-04-30T09:14:11.158Z,19.07
2023-04-30T09:16:48.206Z,18.72
2023-04-30T09:19:26.474Z,18.89
2023-04-30T09:21:56.708Z,18.82
2023-04-30T09:24:25.902Z,19.18
2023-04-30T09:26:54.964Z,19.01
2023-04-30T09:29:23.665Z,18.97
2023-04-30T09:31:52.725Z,19.03
2023-04-30T09:34:35.239Z,19.09
2023-04-30T09:37:05.847Z,19.23
2023-04-30T09:39:34.519Z,19.39
2023-04-30T09:42:10.040Z,19.35
2023-04-30T09:44:40.508Z,19.52
2023-04-30T09:47:14.224Z,19.29
2023-04-30T09:49:48.316Z,19.06
2023-04-30T09:52:19.095Z,19.07
2023-04-30T09:54:48.262Z,18.88
2023-04-30T09:57:17.267Z,18.93
2023-04-30T09:59:47.362Z,19.14
2023-04-30T10:02:17.373Z,19.50
2023-04-30T10:04:50.477Z,19.51
2023-04-30T10:07:22.494Z,19.47
2023-04-30T10:09:53.107Z,19.66
2023-04-30T10:12:23.763Z,19.87
2023-04-30T10:14:55.460Z,19.54
2023-04-30T10:17:27.681Z,19.57
2023-04-30T10:20:00.037Z,19.49
2023-04-30T10:22:30.782Z,19.60
2023-04-30T10:25:00.572Z,19.93
2023-04-30T10:27:30.090Z,19.68
2023-04-30T10:30:00.268Z,19.71
2023-04-30T10:32:34.513Z,19.84
2023-04-30T10:35:11.154Z,19.66
2023-04-30T10:37:45.112Z,19.80
2023-04-30T10:40:14.990Z,19.82
2023-04-30T10:42:47.179Z,19.91
2023-04-30T10:45:17.385Z,20.00
2023-04-30T10:47:46.846Z,20.18
2023-04-30T10:50:16.564Z,20.42
2023-04-30T10:52:46.740Z,20.20
2023-04-30T10:55:18.563Z,20.36
2023-04-30T10:57:50.304Z,20.71
2023-04-30T11:00:29.073Z,20.61
2023-04-30T11:02:59.545Z,20.34
2023-04-30T11:05:36.771Z,20.32
2023-04-30T11:08:07.299Z,20.12
2023-04-30T11:10:36.504Z,20.18
2023-04-30T11:13:06.857Z,20.16
2023-04-30T11:15:41.248Z,20.11
2023-04-30T11:18:10.547Z,20.20
2023-04-30T11:20:41.998Z,20.24
2023-04-30T11:23:19.697Z,20.51
2023-04-30T11:25:57.894Z,20.30
2023-04-30T11:28:27.571Z,19.82
2023-04-30T11:30:57.181Z,20.16
2023-04-30T11:33:27.352Z,20.19
2023-04-30T11:35:56.782Z,20.69
2023-04-30T11:38:30.092Z,20.49
2023-04-30T11:40:59.816Z,20.78
2023-04-30T11:43:29.524Z,20.79
2023-04-30T11:46:07.227Z,21.12
2023-04-30T11:48:37.486Z,20.96
2023-04-30T11:51:10.668Z,20.94
2023-04-30T11:53:41.452Z,21.44
2023-04-30T11:56:10.092Z,21.56
2023-04-30T11:58:40.240Z,21.35
2023-04-30T12:01:10.898Z,21.47
2023-04-30T12:03:46.857Z,21.54
2023-04-30T12:06:25.504Z,21.43
2023-04-30T12:08:56.194Z,21.27
2023-04-30T12:11:26.725Z,21.17
2023-04-30T12:13:56.793Z,20.66
2023-04-30T12:16:26.067Z,20.72
2023-04-30T12:18:55.557Z,20.80
2023-04-30T12:21:24.445Z,20.50
2023-04-30T12:23:53.498Z,20.58
2023-04-30T12:26:23.768Z,20.69
2023-04-30T12:28:53.467Z,20.83
2023-04-30T12:31:22.502Z,20.95
2023-04-30T12:33:57.672Z,21.07
2023-04-30T12:36:36.676Z,21.34
2023-04-30T12:39:08.778Z,21.39
2023-04-30T12:41:42.419Z,21.26
2023-04-30T12:44:21.197Z,21.25
2023-04-30T12:46:51.312Z,21.80
2023-04-30T12:49:26.708Z,21.83
2023-04-30T12:52:01.402Z,21.94
2023-04-30T12:54:31.028Z,22.31
2023-04-30T12:57:03.253Z,22.28
2023-04-30T12:59:32.718Z,21.95
2023-04-30T13:02:09.512Z,21.93
2023-04-30T13:04:38.482Z,22.16
2023-04-30T13:07:07.524Z,22.11
2023-04-30T13:09:40.784Z,21.78
2023-04-30T13:12:11.140Z,21.52
2023-04-30T13:14:39.839Z,21.63
2023-04-30T13:17:09.848Z,21.74
2023-04-30T13:19:38.902Z,21.53
2023-04-30T13:22:07.899Z,21.57
2023-04-30T13:24:37.354Z,21.92
2023-04-30T13:27:06.716Z,22.08
2023-04-30T13:29:36.796Z,22.53
2023-04-30T13:32:06.031Z,22.45
2023-04-30T13:34:35.059Z,21.97
2023-04-30T13:37:03.753Z,22.42
2023-04-30T13:39:32.374Z,22.91
2023-04-30T13:42:01.380Z,22.98
2023-04-30T13:44:32.782Z,22.76
2023-04-30T13:47:03.443Z,23.06
2023-04-30T13:49:32.246Z,23.63
2023-04-30T13:52:01.412Z,23.76
2023-04-30T13:54:30.086Z,23.46
2023-04-30T13:56:59.675Z,23.17
2023-04-30T13:59:31.810Z,23.36
2023-04-30T14:02:00.686Z,23.64
2023-04-30T14:04:31.314Z,23.71
2023-04-30T14:07:03.327Z,23.65
2023-04-30T14:09:32.331Z,23.63
2023-04-30T14:12:00.957Z,23.66
2023-04-30T14:14:29.740Z,23.99
2023-04-30T14:16:58.878Z,23.94
2023-04-30T14:19:27.904Z,23.17
2023-04-30T14:21:58.095Z,23.24
2023-04-30T14:24:28.296Z,23.28
2023-04-30T14:26:57.015Z,22.71
2023-04-30T14:29:26.188Z,22.83
2023-04-30T14:31:55.176Z,23.52
2023-04-30T14:34:24.593Z,24.05
2023-04-30T14:36:53.279Z,24.43
2023-04-30T14:39:23.595Z,24.45
2023-04-30T14:41:53.457Z,24.14
2023-04-30T14:44:24.982Z,24.11
2023-04-30T14:46:55.050Z,24.48
2023-04-30T14:49:24.036Z,24.73
2023-04-30T14:51:52.671Z,24.16
2023-04-30T14:54:21.402Z,23.69
2023-04-30T14:56:51.758Z,23.50
2023-04-30T14:59:20.492Z,22.89
2023-04-30T15:01:49.321Z,22.85
2023-04-30T15:04:18.340Z,22.63
2023-04-30T15:06:46.989Z,22.62
2023-04-30T15:09:15.697Z,22.92
2023-04-30T15:11:44.588Z,22.91
2023-04-30T15:14:16.882Z,23.17
2023-04-30T15:16:45.832Z,23.71
2023-04-30T15:19:14.463Z,24.16
2023-04-30T15:21:43.460Z,23.91
2023-04-30T15:24:12.536Z,23.76
2023-04-30T15:26:41.234Z,23.46
2023-04-30T15:29:10.591Z,23.31
2023-04-30T15:31:41.027Z,23.09
2023-04-30T15:34:09.830Z,22.92
2023-04-30T15:36:38.485Z,23.37
2023-04-30T15:39:07.520Z,23.59
2023-04-30T15:41:36.216Z,22.62
2023-04-30T15:44:05.072Z,22.40
2023-04-30T15:46:34.649Z,21.94
2023-04-30T15:49:04.784Z,20.99
2023-04-30T15:51:34.212Z,20.60
2023-04-30T15:54:03.241Z,20.13
2023-04-30T15:56:31.982Z,21.18
2023-04-30T15:59:00.747Z,20.11
2023-04-30T16:01:29.836Z,20.31
2023-04-30T16:04:00.414Z,20.53
2023-04-30T16:06:32.176Z,19.63
2023-04-30T16:09:06.538Z,20.09
2023-04-30T16:11:35.383Z,20.16
2023-04-30T16:14:06.561Z,20.36
2023-04-30T16:16:35.257Z,19.91
2023-04-30T16:19:08.364Z,19.85
2023-04-30T16:21:40.605Z,19.93
2023-04-30T16:24:13.909Z,19.95
2023-04-30T16:26:42.802Z,19.31
2023-04-30T16:29:13.447Z,18.76
2023-04-30T16:31:47.469Z,18.83
2023-04-30T16:34:16.866Z,18.94
2023-04-30T16:36:47.544Z,18.90
2023-04-30T16:39:20.430Z,18.60
2023-04-30T16:41:49.406Z,18.86
2023-04-30T16:44:25.589Z,19.15
2023-04-30T16:46:57.318Z,18.53
2023-04-30T16:49:26.338Z,19.23
2023-04-30T16:51:56.839Z,19.67
2023-04-30T16:54:25.876Z,19.70
2023-04-30T16:56:55.520Z,19.81
2023-04-30T16:59:27.167Z,19.48
2023-04-30T17:01:58.641Z,19.39
2023-04-30T17:04:27.483Z,19.12
2023-04-30T17:06:57.791Z,19.24
2023-04-30T17:09:29.763Z,18.94
2023-04-30T17:11:59.242Z,18.74
2023-04-30T17:14:28.616Z,18.94
2023-04-30T17:16:58.875Z,19.11
2023-04-30T17:19:27.901Z,19.30
2023-04-30T17:21:58.796Z,19.61
2023-04-30T17:24:29.000Z,19.86
2023-04-30T17:26:59.484Z,19.89
2023-04-30T17:29:28.709Z,20.18
2023-04-30T17:31:58.379Z,20.07
2023-04-30T17:34:27.529Z,19.78
2023-04-30T17:37:00.645Z,19.65
2023-04-30T17:39:33.165Z,19.49
2023-04-30T17:42:07.590Z,19.45
2023-04-30T17:44:36.843Z,19.29
2023-04-30T17:47:06.251Z,19.53
2023-04-30T17:49:39.860Z,19.21
2023-04-30T17:52:11.786Z,18.99
2023-04-30T17:54:41.124Z,18.92
2023-04-30T17:57:10.997Z,19.01
2023-04-30T17:59:40.812Z,19.18
2023-04-30T18:02:12.241Z,18.87
2023-04-30T18:04:41.898Z,18.94
2023-04-30T18:07:11.957Z,18.81
2023-04-30T18:09:40.863Z,19.05
2023-04-30T18:12:09.615Z,19.07
2023-04-30T18:14:38.260Z,18.91
2023-04-30T18:17:08.877Z,18.99
2023-04-30T18:19:44.050Z,18.77
2023-04-30T18:22:15.068Z,18.80
2023-04-30T18:24:44.474Z,18.99
2023-04-30T18:27:13.744Z,18.55
2023-04-30T18:29:43.067Z,18.40
2023-04-30T18:32:13.078Z,18.61
2023-04-30T18:34:42.583Z,18.64
2023-04-30T18:37:11.298Z,18.57
2023-04-30T18:39:41.872Z,18.60
2023-04-30T18:42:12.010Z,18.41
2023-04-30T18:44:42.264Z,18.26
2023-04-30T18:47:12.400Z,18.50
2023-04-30T18:49:41.995Z,18.44
2023-04-30T18:52:14.816Z,18.40
2023-04-30T18:54:44.902Z,18.33
2023-04-30T18:57:16.391Z,18.32
2023-04-30T18:59:45.622Z,18.38
2023-04-30T19:02:15.244Z,18.42
2023-04-30T19:04:59.586Z,17.98
2023-04-30T19:07:30.130Z,17.74
2023-04-30T19:10:02.534Z,17.89
2023-04-30T19:12:32.661Z,17.84
2023-04-30T19:15:02.607Z,17.88
2023-04-30T19:17:33.105Z,18.00
2023-04-30T19:20:03.294Z,18.09
2023-04-30T19:22:35.928Z,17.84
2023-04-30T19:25:08.307Z,17.82
2023-04-30T19:27:37.699Z,17.80
2023-04-30T19:30:08.233Z,17.04
2023-04-30T19:32:39.203Z,17.70
2023-04-30T19:35:09.990Z,17.41
2023-04-30T19:37:40.324Z,17.53
2023-04-30T19:40:12.960Z,17.30
2023-04-30T19:42:45.041Z,17.24
2023-04-30T19:45:15.121Z,17.21
2023-04-30T19:47:44.758Z,17.12
2023-04-30T19:50:13.906Z,17.19
2023-04-30T19:52:43.248Z,17.14
2023-04-30T19:55:15.467Z,16.95
2023-04-30T19:57:45.140Z,16.93
2023-04-30T20:00:16.719Z,16.92
2023-04-30T20:02:48.124Z,16.89
2023-04-30T20:05:17.428Z,16.94
2023-04-30T20:07:48.978Z,16.85
2023-04-30T20:10:22.765Z,16.71
2023-04-30T20:12:54.903Z,16.64
2023-04-30T20:15:24.495Z,16.53
2023-04-30T20:17:54.420Z,16.38
2023-04-30T20:20:26.376Z,16.42
2023-04-30T20:22:56.789Z,16.54
2023-04-30T20:25:31.928Z,16.41
2023-04-30T20:28:01.501Z,16.47
2023-04-30T20:30:30.600Z,16.38
2023-04-30T20:32:59.812Z,16.27
2023-04-30T20:35:29.245Z,16.27
2023-04-30T20:37:58.795Z,16.34
2023-04-30T20:40:30.053Z,16.33
2023-04-30T20:42:59.905Z,16.21
2023-04-30T20:45:33.956Z,16.04
2023-04-30T20:48:03.686Z,15.87
2023-04-30T20:50:32.502Z,15.95
2023-04-30T20:53:01.470Z,16.11
2023-04-30T20:55:32.206Z,16.18
2023-04-30T20:58:01.751Z,15.93
2023-04-30T21:00:30.723Z,16.02
2023-04-30T21:02:59.833Z,15.98
2023-04-30T21:05:30.135Z,15.95
2023-04-30T21:08:01.266Z,16.02
2023-04-30T21:10:36.510Z,15.99
2023-04-30T21:13:08.841Z,15.89
2023-04-30T21:15:39.185Z,15.91
2023-04-30T21:18:08.658Z,15.81
2023-04-30T21:20:37.460Z,15.69
2023-04-30T21:23:06.210Z,15.76
2023-04-30T21:25:38.519Z,15.64
2023-04-30T21:28:07.651Z,15.55
2023-04-30T21:30:37.118Z,15.53
2023-04-30T21:33:08.530Z,15.78
2023-04-30T21:35:40.473Z,15.64
2023-04-30T21:38:10.976Z,15.70
2023-04-30T21:40:42.389Z,15.67
2023-04-30T21:43:11.216Z,15.64
2023-04-30T21:45:43.395Z,15.61
2023-04-30T21:48:12.342Z,15.66
2023-04-30T21:50:41.322Z,15.43
2023-04-30T21:53:10.767Z,15.40
2023-04-30T21:55:39.393Z,15.33
2023-04-30T21:58:09.656Z,15.45
2023-04-30T22:00:38.756Z,15.47
2023-04-30T22:03:09.970Z,15.36
2023-04-30T22:05:39.846Z,15.26
2023-04-30T22:08:08.960Z,15.24
2023-04-30T22:10:37.887Z,15.17
2023-04-30T22:13:06.689Z,15.12
2023-04-30T22:15:47.035Z,15.28
2023-04-30T22:18:17.155Z,15.16
2023-04-30T22:20:46.137Z,15.08
2023-04-30T22:23:15.718Z,15.15
2023-04-30T22:25:44.449Z,15.05
2023-04-30T22:28:16.917Z,14.82
2023-04-30T22:30:47.083Z,14.98
2023-04-30T22:33:16.176Z,14.89
2023-04-30T22:35:44.921Z,14.67
2023-04-30T22:38:13.806Z,14.65
2023-04-30T22:40:42.749Z,14.66
2023-04-30T22:43:11.730Z,14.47
2023-04-30T22:45:41.176Z,14.77
2023-04-30T22:48:11.554Z,14.61
2023-04-30T22:50:40.314Z,14.52
2023-04-30T22:53:09.037Z,14.68
2023-04-30T22:55:38.047Z,14.22
2023-04-30T22:58:06.735Z,14.51
2023-04-30T23:00:35.865Z,14.72
2023-04-30T23:03:05.071Z,14.70
2023-04-30T23:05:35.211Z,14.80
2023-04-30T23:08:04.513Z,14.70
2023-04-30T23:10:33.169Z,14.51
2023-04-30T23:13:04.106Z,14.59
2023-04-30T23:15:32.858Z,14.84
2023-04-30T23:18:01.454Z,14.63
2023-04-30T23:20:30.154Z,14.34
2023-04-30T23:23:00.392Z,14.51
2023-04-30T23:25:29.061Z,14.40
2023-04-30T23:27:59.304Z,14.58
2023-04-30T23:30:28.317Z,14.34
2023-04-30T23:32:57.224Z,14.10
2023-04-30T23:35:26.084Z,14.15
2023-04-30T23:37:54.936Z,14.25
2023-04-30T23:40:25.214Z,14.19
2023-04-30T23:42:53.838Z,14.27
2023-04-30T23:45:23.224Z,14.07
2023-04-30T23:47:52.627Z,14.07
2023-04-30T23:50:21.234Z,14.16
2023-04-30T23:52:50.265Z,13.94
2023-04-30T23:55:19.071Z,14.25
2023-04-30T23:57:49.103Z,14.00
